Time;durP1;ratioP1;P1;durP2;ratioP2;P2;SDS_P1;SDS_P2;PMS_P1;PMS_P2;Temp;Humidity;BMP_temperature;BMP_pressure;BME280_temperature;BME280_humidity;BME280_pressure;Samples;Min_cycle;Max_cycle;Signal;HPM_P1;HPM_P2
2021/08/29 00:00:19;;;;;;;;;;;17.40;96.50;;;16.61;92.38;100883.38;5048879;28;19935;-70
2021/08/29 00:02:46;;;;;;;;;;;17.40;96.50;;;16.62;92.76;100885.06;5048943;28;19952;-69
2021/08/29 00:05:14;;;;;;;;;;;17.40;96.70;;;16.59;92.72;100880.81;5040004;28;20365;-69
2021/08/29 00:07:41;;;;;;;;;;;17.40;96.80;;;16.57;92.72;100882.13;5007265;28;19984;-70
2021/08/29 00:10:09;;;;;;;;;;;17.40;96.70;;;16.57;92.80;100882.13;5009093;28;20455;-69
2021/08/29 00:12:36;;;;;;;;;;;17.40;96.90;;;16.55;93.07;100882.31;5008931;28;19931;-70
2021/08/29 00:15:04;;;;;;;;;;;17.50;97.10;;;16.60;92.74;100884.41;5015727;28;19926;-70
2021/08/29 00:17:33;;;;;;;;;;;17.40;96.90;;;16.58;92.86;100881.03;5028752;28;19960;-69
2021/08/29 00:20:00;;;;;;;;;;;17.40;97.00;;;16.58;93.05;100881.03;5028674;28;19925;-70
2021/08/29 00:22:27;;;;;;;;;;;17.40;96.90;;;16.56;92.93;100875.78;5028722;28;20014;-70
2021/08/29 00:24:54;;;;;;;;;;;17.40;97.00;;;16.55;92.64;100884.22;5029712;28;19969;-69
2021/08/29 00:27:21;;;;;;;;;;;17.40;96.80;;;16.52;92.76;100874.50;5048401;28;19986;-70
2021/08/29 00:29:48;;;;;;;;;;;17.30;96.70;;;16.54;92.47;100877.03;5030583;28;19928;-69
2021/08/29 00:32:15;;;;;;;;;;;17.40;96.60;;;16.54;92.53;100877.03;5012910;28;19929;-69
2021/08/29 00:34:44;;;;;;;;;;;17.30;96.70;;;16.52;92.36;100863.50;5011548;28;19933;-70
2021/08/29 00:37:11;;;;;;;;;;;17.30;96.50;;;16.53;92.10;100867.13;5030468;28;19960;-69
2021/08/29 00:39:39;;;;;;;;;;;17.30;96.70;;;16.52;92.33;100873.66;4995113;28;20000;-69
2021/08/29 00:42:07;;;;;;;;;;;17.30;96.90;;;16.50;92.54;100864.78;5008898;28;20405;-70
2021/08/29 00:44:36;;;;;;;;;;;17.30;97.00;;;16.50;92.63;100871.13;5009972;28;20067;-69
2021/08/29 00:47:06;;;;;;;;;;;17.30;96.90;;;16.51;92.80;100866.50;5030091;28;19929;-70
2021/08/29 00:49:36;;;;;;;;;;;17.30;97.20;;;16.52;92.93;100876.41;5042577;28;20352;-69
2021/08/29 00:52:05;;;;;;;;;;;17.30;97.30;;;16.52;92.67;100857.19;5010698;28;19929;-70
2021/08/29 00:54:33;;;;;;;;;;;17.30;97.00;;;16.52;92.80;100868.16;5010612;28;19941;-69
2021/08/29 00:57:04;;;;;;;;;;;17.30;97.20;;;16.52;92.91;100865.41;5029277;28;19929;-69
2021/08/29 00:59:32;;;;;;;;;;;17.30;97.30;;;16.50;92.44;100864.78;5030439;28;19975;-70
2021/08/29 01:02:02;;;;;;;;;;;17.30;96.90;;;16.50;92.61;100860.13;5048547;28;20023;-70
2021/08/29 01:04:33;;;;;;;;;;;17.30;97.00;;;16.50;92.73;100856.53;5030797;28;19924;-69
2021/08/29 01:07:05;;;;;;;;;;;17.30;97.20;;;16.48;92.85;100845.78;5032223;28;20014;-70
2021/08/29 01:09:48;;;;;;;;;;;17.30;97.20;;;16.49;93.05;100854.88;5016258;28;20415;-70
2021/08/29 01:12:16;;;;;;;;;;;17.30;97.30;;;16.48;92.77;100855.91;5014574;28;20247;-70
2021/08/29 01:14:56;;;;;;;;;;;17.30;97.10;;;16.44;92.68;100851.94;5015064;28;19933;-69
2021/08/29 01:17:28;;;;;;;;;;;17.30;96.90;;;16.41;92.96;100845.81;5034157;28;19929;-70
2021/08/29 01:20:02;;;;;;;;;;;17.30;97.00;;;16.46;92.75;100849.81;5034192;28;20075;-70
2021/08/29 01:22:32;;;;;;;;;;;17.30;97.10;;;16.46;92.83;100853.38;5034369;28;19935;-69
2021/08/29 01:25:01;;;;;;;;;;;17.30;96.90;;;16.46;92.33;100847.88;5029873;28;19932;-70
2021/08/29 01:27:35;;;;;;;;;;;17.30;96.80;;;16.47;92.48;100854.22;5034102;28;20399;-69
2021/08/29 01:30:05;;;;;;;;;;;17.30;96.90;;;16.45;91.80;100853.59;5034021;28;19937;-70
2021/08/29 01:32:33;;;;;;;;;;;17.30;96.20;;;16.44;91.61;100855.50;5033838;28;20060;-70
2021/08/29 01:35:01;;;;;;;;;;;17.20;96.20;;;16.44;91.62;100855.50;5029641;28;19932;-70
2021/08/29 01:37:34;;;;;;;;;;;17.20;96.40;;;16.46;91.77;100855.28;5034124;28;20030;-69
2021/08/29 01:40:03;;;;;;;;;;;17.20;96.30;;;16.46;91.63;100856.13;5019861;28;19935;-70
2021/08/29 01:42:33;;;;;;;;;;;17.20;96.70;;;16.44;92.00;100850.00;5013967;28;19956;-70
2021/08/29 01:45:07;;;;;;;;;;;17.20;96.80;;;16.44;91.75;100843.69;5017291;28;20356;-70
2021/08/29 01:47:36;;;;;;;;;;;17.20;96.40;;;16.42;91.99;100844.72;5033648;28;20170;-69
2021/08/29 01:50:05;;;;;;;;;;;17.20;96.70;;;16.42;91.75;100841.97;5033831;28;19929;-70
2021/08/29 01:52:34;;;;;;;;;;;17.20;96.60;;;16.40;91.79;100846.84;5020901;28;19933;-70
2021/08/29 01:55:39;;;;;;;;;;;17.20;96.50;;;16.39;91.80;100847.06;5014828;28;19935;-69
2021/08/29 01:58:36;;;;;;;;;;;17.20;96.60;;;16.40;91.75;100849.59;5037886;28;20007;-69
2021/08/29 02:01:09;;;;;;;;;;;17.20;96.50;;;16.37;91.94;100849.19;5033681;28;19929;-70
2021/08/29 02:03:37;;;;;;;;;;;17.10;96.80;;;16.36;91.78;100850.25;5033282;28;19935;-70
2021/08/29 02:06:33;;;;;;;;;;;17.10;96.60;;;16.39;91.92;100856.16;5043282;28;19925;-69
2021/08/29 02:09:04;;;;;;;;;;;17.10;96.60;;;16.37;91.89;100854.66;5033206;28;19960;-70
2021/08/29 02:11:38;;;;;;;;;;;17.10;96.80;;;16.37;92.12;100850.03;5028952;28;19932;-70
2021/08/29 02:14:11;;;;;;;;;;;17.10;97.00;;;16.37;92.09;100854.66;5013121;28;20353;-70
2021/08/29 02:16:44;;;;;;;;;;;17.10;96.90;;;16.35;92.29;100852.13;5045596;28;19929;-70
2021/08/29 02:19:14;;;;;;;;;;;17.10;97.00;;;16.33;92.30;100856.16;5033137;28;19960;-70
2021/08/29 02:21:43;;;;;;;;;;;17.10;96.90;;;16.30;92.63;100857.44;5032444;28;19928;-69
2021/08/29 02:24:11;;;;;;;;;;;17.20;97.00;;;16.32;92.58;100849.00;5032776;28;20414;-70
2021/08/29 02:26:39;;;;;;;;;;;17.10;97.10;;;16.32;92.50;100849.84;5023697;28;19929;-70
2021/08/29 02:29:15;;;;;;;;;;;17.10;97.00;;;16.34;92.07;100849.63;5013082;28;20012;-70
2021/08/29 02:31:45;;;;;;;;;;;17.20;96.50;;;16.33;92.21;100836.94;5026356;28;19930;-70
2021/08/29 02:34:12;;;;;;;;;;;17.10;96.80;;;16.31;92.31;100839.88;5010904;28;19976;-69
2021/08/29 02:36:41;;;;;;;;;;;17.10;96.90;;;16.30;92.33;100832.72;5028923;28;20400;-70
2021/08/29 02:39:09;;;;;;;;;;;17.10;97.00;;;16.27;92.52;100835.88;5046555;23;20531;-68
2021/08/29 02:41:37;;;;;;;;;;;17.10;96.90;;;16.30;92.05;100837.38;5033865;28;19929;-68
2021/08/29 02:44:07;;;;;;;;;;;17.10;96.80;;;16.32;92.01;100833.34;5025332;28;19999;-67
2021/08/29 02:46:34;;;;;;;;;;;17.10;96.70;;;16.29;92.21;100831.03;5045615;28;19928;-68
2021/08/29 02:49:05;;;;;;;;;;;17.10;97.00;;;16.29;92.30;100839.25;5020661;28;19929;-68
2021/08/29 02:51:33;;;;;;;;;;;17.10;96.90;;;16.30;91.94;100835.47;5013019;28;19933;-67
2021/08/29 02:54:02;;;;;;;;;;;17.10;96.70;;;16.32;92.07;100833.34;5021934;28;19928;-68
2021/08/29 02:56:31;;;;;;;;;;;17.00;96.80;;;16.30;92.14;100832.72;5045924;28;19925;-70
2021/08/29 02:58:59;;;;;;;;;;;17.00;97.10;;;16.29;91.96;100835.69;5052170;28;19925;-69
2021/08/29 03:01:33;;;;;;;;;;;17.10;97.10;;;16.24;92.52;100833.59;5051575;28;19928;-69
2021/08/29 03:04:03;;;;;;;;;;;17.10;97.20;;;16.23;93.21;100837.38;5050923;28;19928;-69
2021/08/29 03:06:33;;;;;;;;;;;17.00;97.30;;;16.21;93.42;100831.25;5043539;28;19929;-68
2021/08/29 03:09:04;;;;;;;;;;;17.00;97.50;;;16.21;93.64;100829.34;5048601;28;19929;-68
2021/08/29 03:11:33;;;;;;;;;;;17.00;97.80;;;16.24;93.53;100828.09;5048458;28;19999;-68
2021/08/29 03:14:01;;;;;;;;;;;17.00;97.80;;;16.24;93.81;100822.59;5049640;28;19983;-68
2021/08/29 03:16:30;;;;;;;;;;;17.00;97.90;;;16.21;94.10;100820.28;5043284;28;19928;-68
2021/08/29 03:19:09;;;;;;;;;;;17.00;98.00;;;16.24;94.08;100822.59;5022113;28;20060;-67
2021/08/29 03:21:48;;;;;;;;;;;17.00;97.80;;;16.26;94.00;100819.63;5008834;28;19969;-68
2021/08/29 03:24:16;;;;;;;;;;;17.00;98.10;;;16.24;94.23;100817.13;5009517;28;19935;-68
2021/08/29 03:26:44;;;;;;;;;;;17.00;98.40;;;16.20;94.18;100816.69;5042862;28;19992;-68
2021/08/29 03:29:22;;;;;;;;;;;17.00;98.40;;;16.21;94.15;100812.88;5047327;28;19925;-68
2021/08/29 03:31:49;;;;;;;;;;;17.00;98.40;;;16.23;94.36;100818.16;5042216;28;19929;-68
2021/08/29 03:34:20;;;;;;;;;;;17.00;98.40;;;16.25;94.63;100813.28;5027325;28;19933;-68
2021/08/29 03:36:48;;;;;;;;;;;17.00;98.70;;;16.23;94.65;100813.50;5029589;28;19936;-68
2021/08/29 03:39:20;;;;;;;;;;;17.00;98.40;;;16.23;94.55;100812.66;5027448;28;20445;-68
2021/08/29 03:41:49;;;;;;;;;;;17.00;98.40;;;16.23;94.62;100807.19;5027740;28;19929;-68
2021/08/29 03:44:18;;;;;;;;;;;17.00;98.40;;;16.22;94.85;100813.72;5026617;28;19929;-68
2021/08/29 03:46:45;;;;;;;;;;;17.00;98.70;;;16.25;94.65;100809.72;5044569;28;20023;-68
2021/08/29 03:49:34;;;;;;;;;;;17.00;98.60;;;16.23;94.60;100808.00;5028966;28;19935;-68
2021/08/29 03:52:03;;;;;;;;;;;17.00;98.40;;;16.20;94.92;100796.59;5007609;28;20364;-68
2021/08/29 03:54:50;;;;;;;;;;;17.00;98.60;;;16.22;94.95;100797.22;5020913;28;19925;-68
2021/08/29 03:57:18;;;;;;;;;;;17.00;98.80;;;16.22;94.84;100798.09;5027207;28;19931;-68
2021/08/29 03:59:45;;;;;;;;;;;17.00;98.80;;;16.23;94.97;100798.94;5027313;28;19929;-68
2021/08/29 04:02:13;;;;;;;;;;;17.00;98.90;;;16.17;95.23;100799.81;5027428;28;19979;-68
2021/08/29 04:04:43;;;;;;;;;;;17.00;98.90;;;16.19;95.13;100803.19;5026542;28;19929;-68
2021/08/29 04:07:10;;;;;;;;;;;17.00;98.70;;;16.19;94.91;100797.69;5023677;28;20246;-68
2021/08/29 04:09:50;;;;;;;;;;;17.00;98.60;;;16.23;94.76;100804.44;5007723;28;19926;-68
2021/08/29 04:12:18;;;;;;;;;;;17.00;98.80;;;16.17;94.86;100802.53;5023057;28;20016;-68
2021/08/29 04:15:06;;;;;;;;;;;16.90;98.60;;;16.16;95.17;100796.22;5030047;28;19925;-69
2021/08/29 04:17:34;;;;;;;;;;;16.90;98.90;;;16.16;95.24;100798.09;5048892;28;19944;-68
2021/08/29 04:20:04;;;;;;;;;;;16.90;98.90;;;16.18;94.92;100798.72;5048456;28;19929;-68
2021/08/29 04:22:31;;;;;;;;;;;16.90;98.90;;;16.19;94.69;100797.69;5049045;28;19928;-68
2021/08/29 04:24:59;;;;;;;;;;;16.90;98.80;;;16.17;94.81;100788.81;5041326;28;19935;-68
2021/08/29 04:27:27;;;;;;;;;;;16.90;98.80;;;16.18;94.61;100791.34;5047269;28;19974;-68
2021/08/29 04:29:55;;;;;;;;;;;16.90;98.70;;;16.18;94.32;100799.59;5047445;28;19935;-68
2021/08/29 04:32:22;;;;;;;;;;;16.90;98.60;;;16.18;94.89;100790.50;5048882;28;20337;-69
2021/08/29 04:34:50;;;;;;;;;;;16.90;98.80;;;16.19;94.92;100793.03;5041360;28;19929;-68
2021/08/29 04:37:31;;;;;;;;;;;16.90;99.00;;;16.17;94.92;100792.41;5036780;28;19932;-71
2021/08/29 04:40:09;;;;;;;;;;;16.90;98.60;;;16.18;94.87;100790.50;5026864;28;19957;-68
2021/08/29 04:42:46;;;;;;;;;;;16.90;98.70;;;16.16;95.04;100792.59;5026664;28;19967;-68
2021/08/29 04:45:13;;;;;;;;;;;17.00;98.70;;;16.18;94.73;100790.50;5029559;28;20658;-68
2021/08/29 04:47:41;;;;;;;;;;;17.00;98.50;;;16.19;94.73;100786.69;5046396;28;20020;-68
2021/08/29 04:50:09;;;;;;;;;;;17.00;98.50;;;16.18;94.64;100788.59;5046425;28;19951;-68
2021/08/29 04:52:37;;;;;;;;;;;16.90;98.80;;;16.19;94.76;100786.69;5045093;28;19929;-68
2021/08/29 04:55:07;;;;;;;;;;;17.00;98.80;;;16.18;94.89;100791.34;5013796;28;20218;-68
2021/08/29 04:57:37;;;;;;;;;;;17.00;98.90;;;16.13;95.21;100791.16;5027357;28;19957;-68
2021/08/29 05:00:06;;;;;;;;;;;17.00;98.80;;;16.13;95.23;100787.56;5026816;28;19968;-68
2021/08/29 05:02:33;;;;;;;;;;;17.00;98.80;;;16.16;95.29;100789.84;5026955;28;19925;-68
2021/08/29 05:05:01;;;;;;;;;;;17.00;98.90;;;16.15;95.60;100790.94;5026816;28;19929;-68
2021/08/29 05:07:29;;;;;;;;;;;17.00;98.90;;;16.18;95.46;100793.22;5045698;28;20497;-68
2021/08/29 05:09:57;;;;;;;;;;;17.00;98.90;;;16.18;95.39;100785.88;5046441;28;20565;-68
2021/08/29 05:12:25;;;;;;;;;;;17.00;98.80;;;16.18;95.39;100785.00;5046452;28;19928;-68
2021/08/29 05:14:52;;;;;;;;;;;17.00;98.90;;;16.18;95.47;100785.00;5041686;28;20015;-68
2021/08/29 05:17:19;;;;;;;;;;;17.00;98.90;;;16.18;95.71;100785.00;5022181;28;20343;-68
2021/08/29 05:19:50;;;;;;;;;;;17.00;99.00;;;16.19;95.77;100787.53;5045855;28;19972;-68
2021/08/29 05:22:46;;;;;;;;;;;17.00;99.00;;;16.17;95.80;100788.81;4992880;28;20417;-68
2021/08/29 05:25:41;;;;;;;;;;;17.00;98.90;;;16.16;95.29;100787.13;5030729;28;19929;-68
2021/08/29 05:28:08;;;;;;;;;;;17.00;98.80;;;16.15;96.05;100788.19;5020062;28;19932;-68
2021/08/29 05:30:35;;;;;;;;;;;17.00;99.00;;;16.18;96.01;100795.97;5007009;28;19937;-68
2021/08/29 05:33:05;;;;;;;;;;;17.00;99.00;;;16.17;95.78;100789.66;5006756;28;20044;-68
2021/08/29 05:35:32;;;;;;;;;;;17.00;99.00;;;16.17;96.03;100797.06;5006108;28;19930;-68
2021/08/29 05:38:00;;;;;;;;;;;17.00;99.10;;;16.20;96.17;100785.63;5006535;28;19938;-68
2021/08/29 05:40:47;;;;;;;;;;;17.00;99.10;;;16.20;96.24;100788.38;5007936;28;19952;-68
2021/08/29 05:43:33;;;;;;;;;;;17.10;99.30;;;16.20;96.15;100785.63;5008945;28;20360;-68
2021/08/29 05:46:01;;;;;;;;;;;17.10;99.20;;;16.21;96.12;100787.31;5006509;28;19929;-68
2021/08/29 05:48:28;;;;;;;;;;;17.10;99.20;;;16.20;96.06;100782.88;5008864;28;20308;-68
2021/08/29 05:50:55;;;;;;;;;;;17.10;99.00;;;16.21;96.29;100793.66;5009420;28;19952;-68
2021/08/29 05:53:23;;;;;;;;;;;17.10;99.10;;;16.23;96.10;100793.44;5010812;28;20415;-68
2021/08/29 05:55:57;;;;;;;;;;;17.10;99.10;;;16.24;96.12;100784.16;5019101;28;19936;-68
2021/08/29 05:58:25;;;;;;;;;;;17.10;99.00;;;16.20;96.35;100789.22;5011003;28;19961;-67
2021/08/29 06:00:53;;;;;;;;;;;17.20;99.00;;;16.19;96.33;100787.53;5012504;28;19936;-67
2021/08/29 06:03:21;;;;;;;;;;;17.10;99.00;;;16.20;96.16;100789.22;5010655;28;19971;-67
2021/08/29 06:05:48;;;;;;;;;;;17.10;99.00;;;16.22;96.03;100786.25;5012826;28;19941;-67
2021/08/29 06:08:18;;;;;;;;;;;17.10;99.00;;;16.22;96.17;100789.84;5011316;28;20037;-67
2021/08/29 06:10:47;;;;;;;;;;;17.10;99.00;;;16.26;95.82;100786.66;5010056;28;20516;-70
2021/08/29 06:13:15;;;;;;;;;;;17.10;99.00;;;16.25;95.97;100782.25;5011201;28;19926;-68
2021/08/29 06:15:44;;;;;;;;;;;17.10;99.00;;;16.26;96.11;100789.41;5010050;28;20393;-67
2021/08/29 06:18:13;;;;;;;;;;;17.10;99.10;;;16.22;96.22;100791.75;5010328;28;19925;-67
2021/08/29 06:20:42;;;;;;;;;;;17.10;99.00;;;16.23;96.26;100793.44;5010221;28;19929;-68
2021/08/29 06:23:09;;;;;;;;;;;17.10;99.10;;;16.22;96.46;100786.25;5017802;28;20019;-67
2021/08/29 06:25:55;;;;;;;;;;;17.10;99.00;;;16.24;96.15;100786.91;5010677;28;20329;-67
2021/08/29 06:28:42;;;;;;;;;;;17.20;98.60;;;16.23;96.01;100785.19;5011926;28;19936;-69
2021/08/29 06:31:27;;;;;;;;;;;17.10;98.80;;;16.24;96.28;100792.41;5011485;28;19963;-69
2021/08/29 06:34:14;;;;;;;;;;;17.10;99.20;;;16.26;96.21;100779.28;5011905;28;19933;-68
2021/08/29 06:36:43;;;;;;;;;;;17.10;99.10;;;16.26;96.11;100784.78;5010004;28;19952;-71
2021/08/29 06:39:11;;;;;;;;;;;17.10;99.00;;;16.24;96.32;100773.16;5013598;28;20368;-69
2021/08/29 06:41:39;;;;;;;;;;;17.10;99.00;;;16.21;96.57;100774.44;5029910;28;19933;-69
2021/08/29 06:44:10;;;;;;;;;;;17.10;99.20;;;16.25;96.78;100769.34;5030069;28;19936;-67
2021/08/29 06:46:55;;;;;;;;;;;17.10;99.30;;;16.25;96.85;100769.34;5031540;28;19935;-66
2021/08/29 06:49:41;;;;;;;;;;;17.10;99.50;;;16.26;96.82;100767.44;5032117;28;19986;-66
2021/08/29 06:52:27;;;;;;;;;;;17.20;99.30;;;16.26;96.79;100760.06;5031822;28;19952;-67
2021/08/29 06:55:13;;;;;;;;;;;17.20;99.20;;;16.27;96.82;100761.72;5031421;28;20075;-70
2021/08/29 06:57:58;;;;;;;;;;;17.20;99.20;;;16.29;97.34;100765.09;5031647;28;19936;-67
2021/08/29 07:00:28;;;;;;;;;;;17.20;99.50;;;16.29;97.41;100770.59;5013965;28;20297;-68
2021/08/29 07:03:00;;;;;;;;;;;17.20;99.50;;;16.32;97.30;100763.84;5008810;28;19925;-68
2021/08/29 07:05:27;;;;;;;;;;;17.30;99.50;;;16.30;97.23;100766.81;5009262;28;19983;-67
2021/08/29 07:08:17;;;;;;;;;;;17.20;99.30;;;16.29;97.49;100769.75;5017733;23;19936;-67
2021/08/29 07:10:45;;;;;;;;;;;17.20;99.50;;;16.31;97.81;100767.66;4992775;28;19929;-66
2021/08/29 07:13:31;;;;;;;;;;;17.20;99.80;;;16.32;97.69;100763.84;5009179;28;19935;-67
2021/08/29 07:16:00;;;;;;;;;;;17.20;99.70;;;16.33;97.67;100760.88;4987118;28;19981;-66
2021/08/29 07:18:27;;;;;;;;;;;17.20;99.70;;;16.30;98.39;100760.47;4972600;28;19934;-67
2021/08/29 07:21:13;;;;;;;;;;;17.20;99.90;;;16.29;98.46;100759.63;4990108;28;20413;-66
2021/08/29 07:23:50;;;;;;;;;;;17.20;99.90;;;16.26;98.75;100760.06;4990240;28;20012;-66
2021/08/29 07:26:43;;;;;;;;;;;17.20;99.90;;;16.29;98.67;100753.28;4982357;28;20388;-66
2021/08/29 07:29:29;;;;;;;;;;;17.20;99.90;;;16.28;98.84;100755.19;4997903;28;20023;-66
2021/08/29 07:32:16;;;;;;;;;;;17.20;99.90;;;16.28;98.75;100759.81;4998799;28;20023;-67
2021/08/29 07:34:43;;;;;;;;;;;17.20;99.90;;;16.30;98.71;100761.31;4999869;28;19933;-66
2021/08/29 07:37:29;;;;;;;;;;;17.20;99.90;;;16.29;98.75;100759.63;4999618;28;20095;-66
2021/08/29 07:39:57;;;;;;;;;;;17.20;99.90;;;16.23;99.70;100755.00;4972840;28;19937;-66
2021/08/29 07:42:24;;;;;;;;;;;17.10;99.90;;;16.23;99.82;100755.00;4972333;28;20393;-66
2021/08/29 07:44:51;;;;;;;;;;;17.20;99.90;;;16.25;99.89;100757.53;4989399;28;20628;-66
2021/08/29 07:47:27;;;;;;;;;;;17.20;99.90;;;16.24;100.00;100762.19;4972555;28;20336;-66
2021/08/29 07:49:54;;;;;;;;;;;17.20;99.90;;;16.23;99.98;100755.00;4987905;28;19929;-66
2021/08/29 07:52:22;;;;;;;;;;;17.20;99.90;;;16.25;100.00;100755.63;5007724;28;20416;-66
2021/08/29 07:55:08;;;;;;;;;;;17.20;99.90;;;16.25;99.90;100755.63;5008475;28;19937;-66
2021/08/29 07:58:01;;;;;;;;;;;17.20;99.90;;;16.28;100.00;100754.34;4985816;28;19929;-67
2021/08/29 08:00:32;;;;;;;;;;;17.30;99.90;;;16.31;99.97;100759.41;5009570;28;19929;-67
2021/08/29 08:03:27;;;;;;;;;;;17.20;99.90;;;16.33;99.92;100760.03;4978934;28;19930;-67
2021/08/29 08:06:27;;;;;;;;;;;17.20;99.90;;;16.32;100.00;100756.44;4995744;28;20003;-67
2021/08/29 08:09:13;;;;;;;;;;;17.30;99.90;;;16.29;100.00;100758.78;4989576;28;20794;-67
2021/08/29 08:11:40;;;;;;;;;;;17.30;99.90;;;16.32;100.00;100763.84;4970738;28;19930;-67
2021/08/29 08:14:07;;;;;;;;;;;17.30;99.90;;;16.33;100.00;100746.28;4964362;28;19930;-67
2021/08/29 08:16:35;;;;;;;;;;;17.30;99.90;;;16.31;100.00;100753.91;4957127;28;19929;-66
2021/08/29 08:19:09;;;;;;;;;;;17.30;99.90;;;16.31;100.00;100749.25;4975966;28;20020;-66
2021/08/29 08:21:36;;;;;;;;;;;17.30;99.90;;;16.32;100.00;100759.19;4958758;28;19936;-67
2021/08/29 08:24:36;;;;;;;;;;;17.30;99.90;;;16.32;100.00;100755.59;4965894;28;19980;-67
2021/08/29 08:27:21;;;;;;;;;;;17.40;99.90;;;16.24;100.00;100759.44;4980879;28;20412;-68
2021/08/29 08:30:27;;;;;;;;;;;17.30;99.90;;;16.31;100.00;100752.00;4936858;28;19926;-66
2021/08/29 08:33:13;;;;;;;;;;;17.30;99.90;;;16.31;100.00;100745.66;4934177;28;20464;-66
2021/08/29 08:36:05;;;;;;;;;;;17.30;99.90;;;16.31;100.00;100746.50;4965715;28;19930;-66
2021/08/29 08:38:51;;;;;;;;;;;17.30;99.90;;;16.33;100.00;100738.88;5003043;23;19917;-66
2021/08/29 08:41:44;;;;;;;;;;;17.40;99.90;;;16.30;100.00;100749.50;4975005;28;20365;-66
2021/08/29 08:44:30;;;;;;;;;;;17.40;99.90;;;16.26;100.00;100745.47;5008411;28;19936;-66
2021/08/29 08:47:19;;;;;;;;;;;17.40;99.90;;;16.21;100.00;100746.13;4967369;28;19930;-67
2021/08/29 08:50:25;;;;;;;;;;;17.30;99.90;;;16.24;100.00;100740.22;4934524;28;20394;-67
2021/08/29 08:53:12;;;;;;;;;;;17.30;99.90;;;16.25;100.00;100747.38;4938266;28;19938;-67
2021/08/29 08:55:58;;;;;;;;;;;17.30;99.90;;;16.30;100.00;100755.81;4979833;28;19936;-67
2021/08/29 08:59:05;;;;;;;;;;;17.30;99.90;;;16.30;100.00;100742.09;4993951;28;19930;-67
2021/08/29 09:01:50;;;;;;;;;;;17.30;99.90;;;16.29;100.00;100748.63;4996880;28;20321;-67
2021/08/29 09:04:33;;;;;;;;;;;17.30;99.90;;;16.30;100.00;100741.25;4975170;28;19930;-67
2021/08/29 09:07:00;;;;;;;;;;;17.40;99.90;;;16.27;100.00;100739.75;4967880;28;20445;-67
2021/08/29 09:09:33;;;;;;;;;;;17.40;99.90;;;16.20;100.00;100733.44;4983495;28;19930;-67
2021/08/29 09:12:01;;;;;;;;;;;17.40;99.90;;;16.25;100.00;100733.66;4975367;28;19979;-67
2021/08/29 09:14:43;;;;;;;;;;;17.40;99.90;;;16.26;100.00;100731.75;4991579;28;19929;-67
2021/08/29 09:17:29;;;;;;;;;;;17.30;99.90;;;16.28;100.00;100735.97;4972899;28;19926;-67
2021/08/29 09:20:19;;;;;;;;;;;17.30;99.90;;;16.30;100.00;100731.09;4983969;28;19937;-68
2021/08/29 09:22:51;;;;;;;;;;;17.30;99.90;;;16.26;100.00;100723.50;4982436;28;19960;-67
2021/08/29 09:25:44;;;;;;;;;;;17.30;99.90;;;16.23;100.00;100728.38;5009161;28;19936;-67
2021/08/29 09:28:26;;;;;;;;;;;17.30;99.90;;;16.24;100.00;100726.50;5009247;28;19934;-67
2021/08/29 09:30:57;;;;;;;;;;;17.30;99.90;;;16.25;100.00;100725.41;5005868;28;19929;-67
2021/08/29 09:33:30;;;;;;;;;;;17.30;99.90;;;16.26;100.00;100727.13;4973511;28;20000;-67
2021/08/29 09:35:57;;;;;;;;;;;17.30;99.90;;;16.27;100.00;100728.78;4975387;28;20028;-67
2021/08/29 09:38:43;;;;;;;;;;;17.30;99.90;;;16.23;100.00;100728.38;5007206;28;19935;-68
2021/08/29 09:41:36;;;;;;;;;;;17.30;99.90;;;16.22;100.00;100720.34;4975029;28;20271;-67
2021/08/29 09:44:21;;;;;;;;;;;17.30;99.90;;;16.21;100.00;100729.66;5007489;28;19933;-67
2021/08/29 09:47:01;;;;;;;;;;;17.30;99.90;;;16.24;100.00;100734.72;4989791;28;20439;-67
2021/08/29 09:49:50;;;;;;;;;;;17.20;99.90;;;16.25;100.00;100730.91;5002547;28;19933;-67
2021/08/29 09:52:27;;;;;;;;;;;17.20;99.90;;;16.25;100.00;100741.88;4970972;28;20520;-67
2021/08/29 09:55:14;;;;;;;;;;;17.30;99.90;;;16.26;100.00;100729.84;4977203;28;19929;-67
2021/08/29 09:58:17;;;;;;;;;;;17.20;99.90;;;16.28;100.00;100724.13;4958609;28;19930;-67
2021/08/29 10:01:08;;;;;;;;;;;17.20;99.90;;;16.25;100.00;100719.09;4989666;28;19941;-67
2021/08/29 10:03:38;;;;;;;;;;;17.20;99.90;;;16.26;100.00;100727.13;4996736;28;20317;-67
2021/08/29 10:06:20;;;;;;;;;;;17.20;99.90;;;16.28;100.00;100718.63;4985310;28;20057;-68
2021/08/29 10:08:48;;;;;;;;;;;17.20;99.90;;;16.27;100.00;100723.28;4988630;28;20398;-68
2021/08/29 10:11:32;;;;;;;;;;;17.20;99.90;;;16.27;100.00;100720.53;4989363;28;19976;-67
2021/08/29 10:14:02;;;;;;;;;;;17.30;99.90;;;16.27;100.00;100712.31;4998076;28;19932;-68
2021/08/29 10:16:30;;;;;;;;;;;17.30;99.90;;;16.28;100.00;100714.00;4987061;28;19929;-67
2021/08/29 10:19:24;;;;;;;;;;;17.30;99.90;;;16.25;100.00;100719.09;4977191;28;19926;-68
2021/08/29 10:22:11;;;;;;;;;;;17.20;99.90;;;16.26;100.00;100715.25;5000163;28;20131;-67
2021/08/29 10:24:38;;;;;;;;;;;17.20;99.90;;;16.26;100.00;100713.38;4997792;28;20033;-67
2021/08/29 10:27:13;;;;;;;;;;;17.20;99.90;;;16.25;100.00;100711.69;4971768;28;19992;-67
2021/08/29 10:30:17;;;;;;;;;;;17.20;99.90;;;16.26;100.00;100709.75;4983150;28;19933;-67
2021/08/29 10:33:20;;;;;;;;;;;17.20;99.90;;;16.26;100.00;100710.63;4916703;29;19931;-67
2021/08/29 10:35:51;;;;;;;;;;;17.20;99.90;;;16.31;100.00;100718.22;4969507;28;20325;-67
2021/08/29 10:38:45;;;;;;;;;;;17.20;99.90;;;16.31;100.00;100713.53;4994086;28;19926;-67
2021/08/29 10:41:24;;;;;;;;;;;17.20;99.90;;;16.30;100.00;100711.88;4999825;28;19955;-67
2021/08/29 10:43:55;;;;;;;;;;;17.20;99.90;;;16.28;100.00;100714.00;4985568;28;20226;-68
2021/08/29 10:46:44;;;;;;;;;;;17.20;99.90;;;16.29;100.00;100715.66;5000175;28;20439;-68
2021/08/29 10:49:30;;;;;;;;;;;17.30;99.90;;;16.30;100.00;100722.88;5007850;28;20698;-67
2021/08/29 10:51:58;;;;;;;;;;;17.30;99.90;;;16.30;100.00;100711.88;4989243;28;19925;-67
2021/08/29 10:54:25;;;;;;;;;;;17.30;99.90;;;16.27;100.00;100712.31;4984994;28;20060;-67
2021/08/29 10:56:52;;;;;;;;;;;17.30;99.90;;;16.30;100.00;100711.88;4989547;28;19932;-67
2021/08/29 10:59:28;;;;;;;;;;;17.30;99.90;;;16.31;100.00;100719.03;4997726;28;19977;-67
2021/08/29 11:02:13;;;;;;;;;;;17.30;99.90;;;16.31;100.00;100708.06;4989933;28;19983;-67
2021/08/29 11:04:47;;;;;;;;;;;17.40;99.90;;;16.32;100.00;100704.25;5007063;28;19930;-67
2021/08/29 11:07:40;;;;;;;;;;;17.30;99.90;;;16.35;100.00;100701.06;4988513;28;20405;-67
2021/08/29 11:10:08;;;;;;;;;;;17.40;99.90;;;16.38;100.00;100708.88;4987507;28;19929;-67
2021/08/29 11:12:37;;;;;;;;;;;17.40;99.90;;;16.39;100.00;100712.47;4985729;28;19933;-67
2021/08/29 11:15:10;;;;;;;;;;;17.30;99.90;;;16.34;100.00;100707.63;4989258;28;19972;-67
2021/08/29 11:17:58;;;;;;;;;;;17.30;99.90;;;16.37;100.00;100704.47;4989096;28;19925;-67
2021/08/29 11:20:40;;;;;;;;;;;17.40;99.90;;;16.39;100.00;100705.09;4985746;28;19930;-67
2021/08/29 11:23:43;;;;;;;;;;;17.40;99.90;;;16.40;100.00;100700.41;4974388;28;20405;-67
2021/08/29 11:26:28;;;;;;;;;;;17.40;99.90;;;16.38;100.00;100697.88;4986789;28;20427;-67
2021/08/29 11:29:53;;;;;;;;;;;17.40;99.90;;;16.40;100.00;100700.41;4969487;28;19930;-67
2021/08/29 11:32:32;;;;;;;;;;;17.40;99.90;;;16.40;100.00;100706.75;4976310;28;19988;-67
2021/08/29 11:35:06;;;;;;;;;;;17.40;99.90;;;16.39;100.00;100705.09;4986735;28;19930;-67
2021/08/29 11:37:38;;;;;;;;;;;17.40;99.90;;;16.40;100.00;100700.41;4985821;28;19930;-67
2021/08/29 11:40:25;;;;;;;;;;;17.50;99.90;;;16.42;100.00;100704.63;5003385;28;20695;-67
2021/08/29 11:43:16;;;;;;;;;;;17.60;99.90;;;16.46;100.00;100716.03;5005339;28;19929;-68